Airfield :
LOGIN :

Register | Disclaimer

   EN    FR    IT 

 










Legend :    VFR   Marginal VFR   IFR   Intensive IFR   Very Intensive IFR
Visi :
Ceiling :
>= 8 km
>= 3000ft
5 to 8 km
1000 to 3000 ft
1500m to 5 km
500 to 1000 ft
800 to 1500m
200 to 500 ft
< 800m
< 200 ft
Symbols :   Thunderstorms  Fog  Heavy snow  Heavy precipitations  Wind > 20 kt
SIGMETs :     Misc.  Thunderstorms  Icing  Turbulence  Mountain Waves  Volcanic Ashes







- Airport Elevation : 778 ft
- IATA code : BRQ


LKTB - Brno-Turany

CURRENT METAR :
  • 251100Z 15004KT 8000 -RA SCT006 BKN023 14/12 Q1023 TEMPO BKN006

EXPIRED METARs :
  • 251038Z 15006KT 5000 -RA BR SCT005 OVC014 13/12 Q1023 RMK REG QNH 1018
  • 251001Z 13007KT 2200 -RA BR OVC004 13/12 Q1023 RMK REG QNH 1018
  • 251000Z 13007KT 3800 -RA BR OVC004 13/12 Q1023 TEMPO 1500 RA BKN003
  • 250930Z 12006KT 4000 -RA BR OVC004 13/12 Q1022 TEMPO 1500 RA BKN003
  • 250908Z 13006KT 100V160 2800 -RA BR OVC004 13/12 Q1022 RMK REG QNH 1018
  • 250830Z 13005KT 6000 FEW005 SCT013 OVC019 13/12 Q1022 NOSIG

TAF AMD TAF LKTB
Valid from the 25 at 07:00 until the 26 at 12:00 UTC


250735Z 2507/2612 13009KT 5000 BR BKN004
TEMPO 2508/2510 9999 BKN027
BECMG 2510/2512 9999 BKN030
TEMPO 2512/2520 6000 SHRA SCT015TCU BKN020
No reported NOTAMs for that airfield.



MET'MAP, your aeronautical weather chart ! - Copyright ORBIFLY December 2007 - Disclaimer

ORBIFLY MET'MAP TEAM :

Programming & Development : Alexandra Zaïnal
Concept & Development : Baudouin d'Aumeries
Co-Development & Prog : Marc-Olivier Méhu
Technical & hardware support : Manuel Goepfert

Contact : metmap@orbifly.com




SOURCES & CREDITS :

   NOAA